sensor_id;sensor_type;location;lat;lon;timestamp;temperature;humidity
20068;DHT22;10194;50.824;7.134;2023-07-29T00:02:10;19.00;99.90
20068;DHT22;10194;50.824;7.134;2023-07-29T00:04:36;19.00;99.90
20068;DHT22;10194;50.824;7.134;2023-07-29T00:07:01;19.00;99.90
20068;DHT22;10194;50.824;7.134;2023-07-29T00:09:27;19.00;99.90
20068;DHT22;10194;50.824;7.134;2023-07-29T00:11:54;19.00;99.90
20068;DHT22;10194;50.824;7.134;2023-07-29T00:14:24;19.00;99.90
20068;DHT22;10194;50.824;7.134;2023-07-29T00:16:51;19.10;99.90
20068;DHT22;10194;50.824;7.134;2023-07-29T00:19:18;19.10;99.90
20068;DHT22;10194;50.824;7.134;2023-07-29T00:21:46;19.00;99.90
20068;DHT22;10194;50.824;7.134;2023-07-29T00:24:13;19.00;99.90
20068;DHT22;10194;50.824;7.134;2023-07-29T00:26:38;19.00;99.90
20068;DHT22;10194;50.824;7.134;2023-07-29T00:29:04;19.00;99.90
20068;DHT22;10194;50.824;7.134;2023-07-29T00:31:30;19.00;99.90
20068;DHT22;10194;50.824;7.134;2023-07-29T00:33:55;18.90;99.90
20068;DHT22;10194;50.824;7.134;2023-07-29T00:36:23;18.90;99.90
20068;DHT22;10194;50.824;7.134;2023-07-29T00:38:49;18.80;99.90
20068;DHT22;10194;50.824;7.134;2023-07-29T00:41:15;18.80;99.90
20068;DHT22;10194;50.824;7.134;2023-07-29T00:43:41;18.80;99.90
20068;DHT22;10194;50.824;7.134;2023-07-29T00:46:08;18.80;99.90
20068;DHT22;10194;50.824;7.134;2023-07-29T00:48:35;18.80;99.90
20068;DHT22;10194;50.824;7.134;2023-07-29T00:51:01;18.80;99.90
20068;DHT22;10194;50.824;7.134;2023-07-29T00:53:27;18.70;99.90
20068;DHT22;10194;50.824;7.134;2023-07-29T00:55:52;18.70;99.90
20068;DHT22;10194;50.824;7.134;2023-07-29T00:58:19;18.80;99.90
20068;DHT22;10194;50.824;7.134;2023-07-29T01:00:45;18.80;99.90
20068;DHT22;10194;50.824;7.134;2023-07-29T01:03:11;18.70;99.90
20068;DHT22;10194;50.824;7.134;2023-07-29T01:05:59;18.70;99.90
20068;DHT22;10194;50.824;7.134;2023-07-29T01:08:59;18.80;99.90
20068;DHT22;10194;50.824;7.134;2023-07-29T01:11:49;18.80;99.90
20068;DHT22;10194;50.824;7.134;2023-07-29T01:14:48;18.80;99.90
20068;DHT22;10194;50.824;7.134;2023-07-29T01:17:31;18.90;99.90
20068;DHT22;10194;50.824;7.134;2023-07-29T01:20:11;18.90;99.90
20068;DHT22;10194;50.824;7.134;2023-07-29T01:22:42;18.90;99.90
20068;DHT22;10194;50.824;7.134;2023-07-29T01:25:08;18.80;99.90
20068;DHT22;10194;50.824;7.134;2023-07-29T01:27:34;18.80;99.90
20068;DHT22;10194;50.824;7.134;2023-07-29T01:30:01;18.80;99.90
20068;DHT22;10194;50.824;7.134;2023-07-29T01:32:50;18.80;99.90
20068;DHT22;10194;50.824;7.134;2023-07-29T01:36:26;18.80;99.90
20068;DHT22;10194;50.824;7.134;2023-07-29T01:38:35;18.80;99.90
20068;DHT22;10194;50.824;7.134;2023-07-29T01:41:02;18.90;99.90
20068;DHT22;10194;50.824;7.134;2023-07-29T01:43:30;18.80;99.90
20068;DHT22;10194;50.824;7.134;2023-07-29T01:45:56;18.80;99.90
20068;DHT22;10194;50.824;7.134;2023-07-29T01:48:22;18.80;99.90
20068;DHT22;10194;50.824;7.134;2023-07-29T01:50:48;18.70;99.90
20068;DHT22;10194;50.824;7.134;2023-07-29T01:53:14;18.70;99.90
20068;DHT22;10194;50.824;7.134;2023-07-29T01:55:41;18.80;99.90
20068;DHT22;10194;50.824;7.134;2023-07-29T01:58:07;18.80;99.90
20068;DHT22;10194;50.824;7.134;2023-07-29T02:00:33;18.80;99.90
20068;DHT22;10194;50.824;7.134;2023-07-29T02:02:59;18.80;99.90
20068;DHT22;10194;50.824;7.134;2023-07-29T02:05:24;18.90;99.90
20068;DHT22;10194;50.824;7.134;2023-07-29T02:07:50;18.90;99.90
20068;DHT22;10194;50.824;7.134;2023-07-29T02:10:16;19.00;99.90
20068;DHT22;10194;50.824;7.134;2023-07-29T02:12:42;19.00;99.90
20068;DHT22;10194;50.824;7.134;2023-07-29T02:15:08;19.00;99.90
20068;DHT22;10194;50.824;7.134;2023-07-29T02:17:35;19.00;99.90
20068;DHT22;10194;50.824;7.134;2023-07-29T02:20:01;19.00;99.90
20068;DHT22;10194;50.824;7.134;2023-07-29T02:22:29;19.00;99.90
20068;DHT22;10194;50.824;7.134;2023-07-29T02:24:55;19.10;99.90
20068;DHT22;10194;50.824;7.134;2023-07-29T02:27:21;19.00;99.90
20068;DHT22;10194;50.824;7.134;2023-07-29T02:29:47;18.90;99.90
20068;DHT22;10194;50.824;7.134;2023-07-29T02:32:13;18.90;99.90
20068;DHT22;10194;50.824;7.134;2023-07-29T02:34:38;18.90;99.90
20068;DHT22;10194;50.824;7.134;2023-07-29T02:37:04;18.90;99.90
20068;DHT22;10194;50.824;7.134;2023-07-29T02:39:30;18.80;99.90
20068;DHT22;10194;50.824;7.134;2023-07-29T02:41:56;18.80;99.90
20068;DHT22;10194;50.824;7.134;2023-07-29T02:44:23;18.80;99.90
20068;DHT22;10194;50.824;7.134;2023-07-29T02:46:49;18.80;99.90
20068;DHT22;10194;50.824;7.134;2023-07-29T02:49:17;18.70;99.90
20068;DHT22;10194;50.824;7.134;2023-07-29T02:51:43;18.70;99.90
20068;DHT22;10194;50.824;7.134;2023-07-29T02:54:09;18.70;99.90
20068;DHT22;10194;50.824;7.134;2023-07-29T02:56:34;18.70;99.90
20068;DHT22;10194;50.824;7.134;2023-07-29T02:59:00;18.70;99.90
20068;DHT22;10194;50.824;7.134;2023-07-29T03:01:26;18.70;99.90
20068;DHT22;10194;50.824;7.134;2023-07-29T03:03:52;18.60;99.90
20068;DHT22;10194;50.824;7.134;2023-07-29T03:06:18;18.60;99.90
20068;DHT22;10194;50.824;7.134;2023-07-29T03:08:44;18.60;99.90
20068;DHT22;10194;50.824;7.134;2023-07-29T03:11:13;18.50;99.90
20068;DHT22;10194;50.824;7.134;2023-07-29T03:13:40;18.50;99.90
20068;DHT22;10194;50.824;7.134;2023-07-29T03:16:06;18.50;99.90
20068;DHT22;10194;50.824;7.134;2023-07-29T03:18:32;18.50;99.90
20068;DHT22;10194;50.824;7.134;2023-07-29T03:20:58;18.50;99.90
20068;DHT22;10194;50.824;7.134;2023-07-29T03:23:23;18.50;99.90
20068;DHT22;10194;50.824;7.134;2023-07-29T03:25:49;18.50;99.90
20068;DHT22;10194;50.824;7.134;2023-07-29T03:28:23;18.50;99.90
20068;DHT22;10194;50.824;7.134;2023-07-29T03:30:50;18.40;99.90
20068;DHT22;10194;50.824;7.134;2023-07-29T03:33:16;18.40;99.90
20068;DHT22;10194;50.824;7.134;2023-07-29T03:35:42;18.40;99.90
20068;DHT22;10194;50.824;7.134;2023-07-29T03:38:10;18.40;99.90
20068;DHT22;10194;50.824;7.134;2023-07-29T03:40:40;18.40;99.90
20068;DHT22;10194;50.824;7.134;2023-07-29T03:43:06;18.30;99.90
20068;DHT22;10194;50.824;7.134;2023-07-29T03:45:35;18.30;99.90
20068;DHT22;10194;50.824;7.134;2023-07-29T03:48:02;18.30;99.90
20068;DHT22;10194;50.824;7.134;2023-07-29T03:50:29;18.20;99.90
20068;DHT22;10194;50.824;7.134;2023-07-29T03:52:56;18.20;99.90
20068;DHT22;10194;50.824;7.134;2023-07-29T03:55:22;18.20;99.90
20068;DHT22;10194;50.824;7.134;2023-07-29T03:57:48;18.10;99.90
20068;DHT22;10194;50.824;7.134;2023-07-29T04:00:14;18.10;99.90
20068;DHT22;10194;50.824;7.134;2023-07-29T04:02:41;18.10;99.90
20068;DHT22;10194;50.824;7.134;2023-07-29T04:05:08;18.10;99.90
20068;DHT22;10194;50.824;7.134;2023-07-29T04:07:35;18.00;99.90
20068;DHT22;10194;50.824;7.134;2023-07-29T04:10:01;18.00;99.90
20068;DHT22;10194;50.824;7.134;2023-07-29T04:12:28;18.00;99.90
20068;DHT22;10194;50.824;7.134;2023-07-29T04:14:53;17.90;99.90
20068;DHT22;10194;50.824;7.134;2023-07-29T04:17:19;17.90;99.90
20068;DHT22;10194;50.824;7.134;2023-07-29T04:19:45;17.90;99.90
20068;DHT22;10194;50.824;7.134;2023-07-29T04:22:11;18.00;99.90
20068;DHT22;10194;50.824;7.134;2023-07-29T04:24:37;18.00;99.90
20068;DHT22;10194;50.824;7.134;2023-07-29T04:27:03;17.90;99.90
20068;DHT22;10194;50.824;7.134;2023-07-29T04:29:29;17.90;99.90
20068;DHT22;10194;50.824;7.134;2023-07-29T04:31:55;17.90;99.90
20068;DHT22;10194;50.824;7.134;2023-07-29T04:34:21;17.80;99.90
20068;DHT22;10194;50.824;7.134;2023-07-29T04:36:47;17.80;99.90
20068;DHT22;10194;50.824;7.134;2023-07-29T04:39:14;17.80;99.90
20068;DHT22;10194;50.824;7.134;2023-07-29T04:41:40;17.80;99.90
20068;DHT22;10194;50.824;7.134;2023-07-29T04:44:06;17.80;99.90
20068;DHT22;10194;50.824;7.134;2023-07-29T04:46:33;17.70;99.90
20068;DHT22;10194;50.824;7.134;2023-07-29T04:48:59;17.80;99.90
20068;DHT22;10194;50.824;7.134;2023-07-29T04:51:24;17.80;99.90
20068;DHT22;10194;50.824;7.134;2023-07-29T04:53:50;17.80;99.90
20068;DHT22;10194;50.824;7.134;2023-07-29T04:56:16;17.70;99.90
20068;DHT22;10194;50.824;7.134;2023-07-29T04:58:42;17.80;99.90
20068;DHT22;10194;50.824;7.134;2023-07-29T05:01:08;17.80;99.90
20068;DHT22;10194;50.824;7.134;2023-07-29T05:03:33;17.80;99.90
20068;DHT22;10194;50.824;7.134;2023-07-29T05:05:59;17.80;99.90
20068;DHT22;10194;50.824;7.134;2023-07-29T05:08:26;17.90;99.90
20068;DHT22;10194;50.824;7.134;2023-07-29T05:10:53;17.90;99.90
20068;DHT22;10194;50.824;7.134;2023-07-29T05:13:19;17.90;99.90
20068;DHT22;10194;50.824;7.134;2023-07-29T05:15:47;17.90;99.90
20068;DHT22;10194;50.824;7.134;2023-07-29T05:18:13;17.90;99.90
20068;DHT22;10194;50.824;7.134;2023-07-29T05:20:39;18.00;99.90
20068;DHT22;10194;50.824;7.134;2023-07-29T05:23:05;18.00;99.90
20068;DHT22;10194;50.824;7.134;2023-07-29T05:25:31;18.00;99.90
20068;DHT22;10194;50.824;7.134;2023-07-29T05:27:56;18.00;99.90
20068;DHT22;10194;50.824;7.134;2023-07-29T05:30:23;18.00;99.90
20068;DHT22;10194;50.824;7.134;2023-07-29T05:32:48;18.10;99.90
20068;DHT22;10194;50.824;7.134;2023-07-29T05:35:14;18.10;99.90
20068;DHT22;10194;50.824;7.134;2023-07-29T05:37:40;18.20;99.90
20068;DHT22;10194;50.824;7.134;2023-07-29T05:40:07;18.20;99.90
20068;DHT22;10194;50.824;7.134;2023-07-29T05:42:34;18.30;99.90
20068;DHT22;10194;50.824;7.134;2023-07-29T05:45:01;18.40;99.90
20068;DHT22;10194;50.824;7.134;2023-07-29T05:47:27;18.40;99.90
20068;DHT22;10194;50.824;7.134;2023-07-29T05:49:53;18.40;99.90
20068;DHT22;10194;50.824;7.134;2023-07-29T05:52:19;18.40;99.90
20068;DHT22;10194;50.824;7.134;2023-07-29T05:54:44;18.40;99.90
20068;DHT22;10194;50.824;7.134;2023-07-29T05:57:11;18.40;99.90
20068;DHT22;10194;50.824;7.134;2023-07-29T05:59:38;18.50;99.90
20068;DHT22;10194;50.824;7.134;2023-07-29T06:02:05;18.50;99.90
20068;DHT22;10194;50.824;7.134;2023-07-29T06:04:31;18.40;99.90
20068;DHT22;10194;50.824;7.134;2023-07-29T06:06:57;18.50;99.90
20068;DHT22;10194;50.824;7.134;2023-07-29T06:09:23;18.60;99.90
20068;DHT22;10194;50.824;7.134;2023-07-29T06:11:50;18.80;99.90
20068;DHT22;10194;50.824;7.134;2023-07-29T06:14:16;18.90;99.90
20068;DHT22;10194;50.824;7.134;2023-07-29T06:16:42;18.90;99.90
20068;DHT22;10194;50.824;7.134;2023-07-29T06:19:08;18.90;99.90
20068;DHT22;10194;50.824;7.134;2023-07-29T06:21:35;18.90;99.90
20068;DHT22;10194;50.824;7.134;2023-07-29T06:24:01;18.80;99.90
20068;DHT22;10194;50.824;7.134;2023-07-29T06:26:27;18.90;99.90
20068;DHT22;10194;50.824;7.134;2023-07-29T06:28:53;18.80;99.90
20068;DHT22;10194;50.824;7.134;2023-07-29T06:31:19;18.80;99.90
20068;DHT22;10194;50.824;7.134;2023-07-29T06:33:46;18.80;99.90
20068;DHT22;10194;50.824;7.134;2023-07-29T06:36:12;18.90;99.90
20068;DHT22;10194;50.824;7.134;2023-07-29T06:38:37;18.90;99.90
20068;DHT22;10194;50.824;7.134;2023-07-29T06:41:04;18.90;99.90
20068;DHT22;10194;50.824;7.134;2023-07-29T06:43:30;19.00;99.90
20068;DHT22;10194;50.824;7.134;2023-07-29T06:45:56;19.00;99.90
20068;DHT22;10194;50.824;7.134;2023-07-29T06:48:22;19.00;99.90
20068;DHT22;10194;50.824;7.134;2023-07-29T06:50:48;19.00;99.90
20068;DHT22;10194;50.824;7.134;2023-07-29T06:53:16;19.00;99.90
20068;DHT22;10194;50.824;7.134;2023-07-29T06:55:42;18.90;99.90
20068;DHT22;10194;50.824;7.134;2023-07-29T06:58:09;18.90;99.90
20068;DHT22;10194;50.824;7.134;2023-07-29T07:00:35;18.90;99.90
20068;DHT22;10194;50.824;7.134;2023-07-29T07:03:00;19.00;99.90
20068;DHT22;10194;50.824;7.134;2023-07-29T07:05:26;19.10;99.90
20068;DHT22;10194;50.824;7.134;2023-07-29T07:07:52;19.30;99.90
20068;DHT22;10194;50.824;7.134;2023-07-29T07:10:18;19.60;99.90
20068;DHT22;10194;50.824;7.134;2023-07-29T07:12:44;19.70;99.90
20068;DHT22;10194;50.824;7.134;2023-07-29T07:15:10;19.70;99.90
20068;DHT22;10194;50.824;7.134;2023-07-29T07:17:35;19.70;99.90
20068;DHT22;10194;50.824;7.134;2023-07-29T07:20:01;19.70;99.90
20068;DHT22;10194;50.824;7.134;2023-07-29T07:22:27;19.70;99.90
20068;DHT22;10194;50.824;7.134;2023-07-29T07:24:53;19.60;99.90
20068;DHT22;10194;50.824;7.134;2023-07-29T07:27:19;19.70;99.90
20068;DHT22;10194;50.824;7.134;2023-07-29T07:29:44;19.70;99.90
20068;DHT22;10194;50.824;7.134;2023-07-29T07:32:10;19.70;99.90
20068;DHT22;10194;50.824;7.134;2023-07-29T07:34:36;19.60;99.90
20068;DHT22;10194;50.824;7.134;2023-07-29T07:37:01;19.70;99.90
20068;DHT22;10194;50.824;7.134;2023-07-29T07:39:29;19.70;99.90
20068;DHT22;10194;50.824;7.134;2023-07-29T07:41:55;19.60;99.90
20068;DHT22;10194;50.824;7.134;2023-07-29T07:44:21;19.60;99.90
20068;DHT22;10194;50.824;7.134;2023-07-29T07:46:46;19.60;99.90
20068;DHT22;10194;50.824;7.134;2023-07-29T07:49:12;19.60;99.90
20068;DHT22;10194;50.824;7.134;2023-07-29T07:51:39;19.70;99.90
20068;DHT22;10194;50.824;7.134;2023-07-29T07:54:05;19.70;99.90
20068;DHT22;10194;50.824;7.134;2023-07-29T07:56:30;19.70;99.90
20068;DHT22;10194;50.824;7.134;2023-07-29T07:58:56;19.80;99.90
20068;DHT22;10194;50.824;7.134;2023-07-29T08:01:22;20.00;99.90
20068;DHT22;10194;50.824;7.134;2023-07-29T08:03:48;20.10;99.90
20068;DHT22;10194;50.824;7.134;2023-07-29T08:06:14;20.30;99.90
20068;DHT22;10194;50.824;7.134;2023-07-29T08:08:39;20.40;99.90
20068;DHT22;10194;50.824;7.134;2023-07-29T08:11:05;21.00;99.90
20068;DHT22;10194;50.824;7.134;2023-07-29T08:13:31;21.70;99.90
20068;DHT22;10194;50.824;7.134;2023-07-29T08:15:56;21.80;99.90
20068;DHT22;10194;50.824;7.134;2023-07-29T08:18:22;21.50;99.90
20068;DHT22;10194;50.824;7.134;2023-07-29T08:20:53;21.30;99.90
20068;DHT22;10194;50.824;7.134;2023-07-29T08:23:26;21.30;99.90
20068;DHT22;10194;50.824;7.134;2023-07-29T08:25:53;21.30;99.90
20068;DHT22;10194;50.824;7.134;2023-07-29T08:28:20;21.20;99.90
20068;DHT22;10194;50.824;7.134;2023-07-29T08:30:46;21.10;99.90
20068;DHT22;10194;50.824;7.134;2023-07-29T08:33:12;21.60;99.90
20068;DHT22;10194;50.824;7.134;2023-07-29T08:35:38;22.60;99.90
20068;DHT22;10194;50.824;7.134;2023-07-29T08:38:03;23.00;99.90
20068;DHT22;10194;50.824;7.134;2023-07-29T08:40:31;22.60;99.90
20068;DHT22;10194;50.824;7.134;2023-07-29T08:42:58;22.50;99.90
20068;DHT22;10194;50.824;7.134;2023-07-29T08:45:33;22.30;99.90
20068;DHT22;10194;50.824;7.134;2023-07-29T08:48:02;22.10;99.90
20068;DHT22;10194;50.824;7.134;2023-07-29T08:50:33;22.00;99.90
20068;DHT22;10194;50.824;7.134;2023-07-29T08:53:00;21.90;99.90
20068;DHT22;10194;50.824;7.134;2023-07-29T08:55:26;21.80;99.90
20068;DHT22;10194;50.824;7.134;2023-07-29T08:57:53;21.60;99.90
20068;DHT22;10194;50.824;7.134;2023-07-29T09:00:19;21.50;99.90
20068;DHT22;10194;50.824;7.134;2023-07-29T09:02:45;21.30;99.90
20068;DHT22;10194;50.824;7.134;2023-07-29T09:05:11;21.10;99.90
20068;DHT22;10194;50.824;7.134;2023-07-29T09:07:37;21.00;99.90
20068;DHT22;10194;50.824;7.134;2023-07-29T09:10:04;20.80;99.90
20068;DHT22;10194;50.824;7.134;2023-07-29T09:12:30;20.80;99.90
20068;DHT22;10194;50.824;7.134;2023-07-29T09:14:55;20.70;99.90
20068;DHT22;10194;50.824;7.134;2023-07-29T09:17:21;20.70;99.90
20068;DHT22;10194;50.824;7.134;2023-07-29T09:19:50;20.60;99.90
20068;DHT22;10194;50.824;7.134;2023-07-29T09:22:20;20.70;99.90
20068;DHT22;10194;50.824;7.134;2023-07-29T09:24:47;20.70;99.90
20068;DHT22;10194;50.824;7.134;2023-07-29T09:27:24;20.80;99.90
20068;DHT22;10194;50.824;7.134;2023-07-29T09:29:51;21.00;99.90
20068;DHT22;10194;50.824;7.134;2023-07-29T09:32:24;21.10;99.90
20068;DHT22;10194;50.824;7.134;2023-07-29T09:34:51;21.30;99.90
20068;DHT22;10194;50.824;7.134;2023-07-29T09:37:21;21.30;99.90
20068;DHT22;10194;50.824;7.134;2023-07-29T09:39:48;21.30;99.90
20068;DHT22;10194;50.824;7.134;2023-07-29T09:42:19;21.40;99.90
20068;DHT22;10194;50.824;7.134;2023-07-29T09:44:48;21.60;99.90
20068;DHT22;10194;50.824;7.134;2023-07-29T09:47:25;21.50;99.90
20068;DHT22;10194;50.824;7.134;2023-07-29T09:49:52;21.40;99.90
20068;DHT22;10194;50.824;7.134;2023-07-29T09:52:19;21.30;99.90
20068;DHT22;10194;50.824;7.134;2023-07-29T09:54:46;21.30;99.90
20068;DHT22;10194;50.824;7.134;2023-07-29T09:57:18;21.10;99.90
20068;DHT22;10194;50.824;7.134;2023-07-29T09:59:55;21.00;99.90
20068;DHT22;10194;50.824;7.134;2023-07-29T10:02:22;20.90;99.90
20068;DHT22;10194;50.824;7.134;2023-07-29T10:04:49;20.80;99.90
20068;DHT22;10194;50.824;7.134;2023-07-29T10:07:16;20.80;99.90
20068;DHT22;10194;50.824;7.134;2023-07-29T10:09:42;20.90;99.90
20068;DHT22;10194;50.824;7.134;2023-07-29T10:12:09;20.90;99.90
20068;DHT22;10194;50.824;7.134;2023-07-29T10:14:38;21.00;99.90
20068;DHT22;10194;50.824;7.134;2023-07-29T10:17:05;21.10;99.90
20068;DHT22;10194;50.824;7.134;2023-07-29T10:19:31;21.10;99.90
20068;DHT22;10194;50.824;7.134;2023-07-29T10:21:59;21.00;99.90
20068;DHT22;10194;50.824;7.134;2023-07-29T10:24:32;21.10;99.90
20068;DHT22;10194;50.824;7.134;2023-07-29T10:27:00;21.30;99.90
20068;DHT22;10194;50.824;7.134;2023-07-29T10:29:38;21.40;99.90
20068;DHT22;10194;50.824;7.134;2023-07-29T10:32:06;21.20;99.90
20068;DHT22;10194;50.824;7.134;2023-07-29T10:34:32;21.10;99.90
20068;DHT22;10194;50.824;7.134;2023-07-29T10:37:01;21.00;99.90
20068;DHT22;10194;50.824;7.134;2023-07-29T10:39:26;21.10;99.90
20068;DHT22;10194;50.824;7.134;2023-07-29T10:41:59;21.10;99.90
20068;DHT22;10194;50.824;7.134;2023-07-29T10:47:29;20.90;99.90
20068;DHT22;10194;50.824;7.134;2023-07-29T10:49:56;20.70;99.90
20068;DHT22;10194;50.824;7.134;2023-07-29T10:54:59;20.90;99.90
20068;DHT22;10194;50.824;7.134;2023-07-29T10:57:37;20.80;99.90
20068;DHT22;10194;50.824;7.134;2023-07-29T11:00:06;20.80;99.90
20068;DHT22;10194;50.824;7.134;2023-07-29T11:02:35;20.60;99.90
20068;DHT22;10194;50.824;7.134;2023-07-29T11:05:27;20.40;99.90
20068;DHT22;10194;50.824;7.134;2023-07-29T11:07:52;20.50;99.90
20068;DHT22;10194;50.824;7.134;2023-07-29T11:10:17;20.60;99.90
20068;DHT22;10194;50.824;7.134;2023-07-29T11:12:47;20.80;99.90
20068;DHT22;10194;50.824;7.134;2023-07-29T11:17:54;21.10;99.90
20068;DHT22;10194;50.824;7.134;2023-07-29T11:20:22;21.20;99.90
20068;DHT22;10194;50.824;7.134;2023-07-29T11:22:49;21.40;99.90
20068;DHT22;10194;50.824;7.134;2023-07-29T11:25:17;21.50;99.90
20068;DHT22;10194;50.824;7.134;2023-07-29T11:27:44;21.40;99.90
20068;DHT22;10194;50.824;7.134;2023-07-29T11:30:12;21.50;99.90
20068;DHT22;10194;50.824;7.134;2023-07-29T11:32:40;21.40;99.90
20068;DHT22;10194;50.824;7.134;2023-07-29T11:35:11;21.50;99.90
20068;DHT22;10194;50.824;7.134;2023-07-29T11:37:38;21.50;99.90
20068;DHT22;10194;50.824;7.134;2023-07-29T11:40:05;21.60;99.90
20068;DHT22;10194;50.824;7.134;2023-07-29T11:42:33;21.60;99.90
20068;DHT22;10194;50.824;7.134;2023-07-29T11:45:00;21.70;99.90
20068;DHT22;10194;50.824;7.134;2023-07-29T11:47:32;21.90;99.90
20068;DHT22;10194;50.824;7.134;2023-07-29T11:50:01;21.80;99.90
20068;DHT22;10194;50.824;7.134;2023-07-29T11:52:32;21.90;99.90
20068;DHT22;10194;50.824;7.134;2023-07-29T11:54:59;21.90;99.90
20068;DHT22;10194;50.824;7.134;2023-07-29T11:57:25;21.90;99.90
20068;DHT22;10194;50.824;7.134;2023-07-29T11:59:51;22.10;99.90
20068;DHT22;10194;50.824;7.134;2023-07-29T12:02:20;22.20;99.90
20068;DHT22;10194;50.824;7.134;2023-07-29T12:04:47;22.30;99.90
20068;DHT22;10194;50.824;7.134;2023-07-29T12:07:14;22.30;99.90
20068;DHT22;10194;50.824;7.134;2023-07-29T12:09:44;22.50;99.90
20068;DHT22;10194;50.824;7.134;2023-07-29T12:12:12;22.70;99.90
20068;DHT22;10194;50.824;7.134;2023-07-29T12:14:38;22.50;99.90
20068;DHT22;10194;50.824;7.134;2023-07-29T12:17:05;22.40;99.90
20068;DHT22;10194;50.824;7.134;2023-07-29T12:19:36;22.30;99.90
20068;DHT22;10194;50.824;7.134;2023-07-29T12:22:04;22.20;99.90
20068;DHT22;10194;50.824;7.134;2023-07-29T12:24:33;22.20;99.90
20068;DHT22;10194;50.824;7.134;2023-07-29T12:27:01;22.20;99.90
20068;DHT22;10194;50.824;7.134;2023-07-29T12:29:28;22.30;99.90
20068;DHT22;10194;50.824;7.134;2023-07-29T12:32:03;22.10;99.90
20068;DHT22;10194;50.824;7.134;2023-07-29T12:34:30;22.30;99.90
20068;DHT22;10194;50.824;7.134;2023-07-29T12:36:58;21.80;99.90
20068;DHT22;10194;50.824;7.134;2023-07-29T12:39:29;22.00;99.90
20068;DHT22;10194;50.824;7.134;2023-07-29T12:41:58;22.10;99.90
20068;DHT22;10194;50.824;7.134;2023-07-29T12:44:34;21.90;99.90
20068;DHT22;10194;50.824;7.134;2023-07-29T12:47:01;21.90;99.90
20068;DHT22;10194;50.824;7.134;2023-07-29T12:49:29;21.90;99.90
20068;DHT22;10194;50.824;7.134;2023-07-29T12:51:56;21.70;99.90
20068;DHT22;10194;50.824;7.134;2023-07-29T12:54:23;22.00;99.90
20068;DHT22;10194;50.824;7.134;2023-07-29T12:56:48;22.30;99.90
20068;DHT22;10194;50.824;7.134;2023-07-29T12:59:14;22.50;99.90
20068;DHT22;10194;50.824;7.134;2023-07-29T13:01:40;22.30;99.90
20068;DHT22;10194;50.824;7.134;2023-07-29T13:04:06;21.90;99.90
20068;DHT22;10194;50.824;7.134;2023-07-29T13:06:32;21.90;99.90
20068;DHT22;10194;50.824;7.134;2023-07-29T13:08:58;22.00;99.90
20068;DHT22;10194;50.824;7.134;2023-07-29T13:11:24;21.90;99.90
20068;DHT22;10194;50.824;7.134;2023-07-29T13:13:50;21.90;99.90
20068;DHT22;10194;50.824;7.134;2023-07-29T13:16:15;21.90;99.90
20068;DHT22;10194;50.824;7.134;2023-07-29T13:18:43;21.90;99.90
20068;DHT22;10194;50.824;7.134;2023-07-29T13:21:09;21.90;99.90
20068;DHT22;10194;50.824;7.134;2023-07-29T13:23:34;21.80;99.90
20068;DHT22;10194;50.824;7.134;2023-07-29T13:26:00;21.80;99.90
20068;DHT22;10194;50.824;7.134;2023-07-29T13:28:26;21.80;99.90
20068;DHT22;10194;50.824;7.134;2023-07-29T13:30:52;21.60;99.90
20068;DHT22;10194;50.824;7.134;2023-07-29T13:33:17;21.40;99.90
20068;DHT22;10194;50.824;7.134;2023-07-29T13:35:43;21.30;99.90
20068;DHT22;10194;50.824;7.134;2023-07-29T13:38:09;21.10;99.90
20068;DHT22;10194;50.824;7.134;2023-07-29T13:40:36;21.00;99.90
20068;DHT22;10194;50.824;7.134;2023-07-29T13:43:02;20.90;99.90
20068;DHT22;10194;50.824;7.134;2023-07-29T13:45:28;20.80;99.90
20068;DHT22;10194;50.824;7.134;2023-07-29T13:47:54;20.70;99.90
20068;DHT22;10194;50.824;7.134;2023-07-29T13:50:19;20.60;99.90
20068;DHT22;10194;50.824;7.134;2023-07-29T13:52:45;20.60;99.90
20068;DHT22;10194;50.824;7.134;2023-07-29T13:55:11;20.60;99.90
20068;DHT22;10194;50.824;7.134;2023-07-29T13:57:37;20.60;99.90
20068;DHT22;10194;50.824;7.134;2023-07-29T14:00:07;20.60;99.90
20068;DHT22;10194;50.824;7.134;2023-07-29T14:02:33;20.50;99.90
20068;DHT22;10194;50.824;7.134;2023-07-29T14:04:59;20.40;99.90
20068;DHT22;10194;50.824;7.134;2023-07-29T14:07:25;20.40;99.90
20068;DHT22;10194;50.824;7.134;2023-07-29T14:09:50;20.30;99.90
20068;DHT22;10194;50.824;7.134;2023-07-29T14:12:16;20.30;99.90
20068;DHT22;10194;50.824;7.134;2023-07-29T14:14:42;20.30;99.90
20068;DHT22;10194;50.824;7.134;2023-07-29T14:17:08;20.40;99.90
20068;DHT22;10194;50.824;7.134;2023-07-29T14:19:35;20.40;99.90
20068;DHT22;10194;50.824;7.134;2023-07-29T14:22:04;20.40;99.90
20068;DHT22;10194;50.824;7.134;2023-07-29T14:24:30;20.40;99.90
20068;DHT22;10194;50.824;7.134;2023-07-29T14:26:55;20.40;99.90
20068;DHT22;10194;50.824;7.134;2023-07-29T14:29:21;20.40;99.90
20068;DHT22;10194;50.824;7.134;2023-07-29T14:31:47;20.50;99.90
20068;DHT22;10194;50.824;7.134;2023-07-29T14:34:13;20.40;99.90
20068;DHT22;10194;50.824;7.134;2023-07-29T14:36:38;20.30;99.90
20068;DHT22;10194;50.824;7.134;2023-07-29T14:39:04;20.20;99.90
20068;DHT22;10194;50.824;7.134;2023-07-29T14:41:31;20.30;99.90
20068;DHT22;10194;50.824;7.134;2023-07-29T14:43:56;20.40;99.90
20068;DHT22;10194;50.824;7.134;2023-07-29T14:46:22;20.30;99.90
20068;DHT22;10194;50.824;7.134;2023-07-29T14:48:48;20.30;99.90
20068;DHT22;10194;50.824;7.134;2023-07-29T14:51:14;20.20;99.90
20068;DHT22;10194;50.824;7.134;2023-07-29T14:53:40;20.20;99.90
20068;DHT22;10194;50.824;7.134;2023-07-29T14:56:06;20.30;99.90
20068;DHT22;10194;50.824;7.134;2023-07-29T14:58:32;20.50;99.90
20068;DHT22;10194;50.824;7.134;2023-07-29T15:00:58;20.50;99.90
20068;DHT22;10194;50.824;7.134;2023-07-29T15:03:26;20.60;99.90
20068;DHT22;10194;50.824;7.134;2023-07-29T15:05:52;20.60;99.90
20068;DHT22;10194;50.824;7.134;2023-07-29T15:08:18;20.50;99.90
20068;DHT22;10194;50.824;7.134;2023-07-29T15:10:47;20.50;99.90
20068;DHT22;10194;50.824;7.134;2023-07-29T15:13:14;20.50;99.90
20068;DHT22;10194;50.824;7.134;2023-07-29T15:15:43;20.50;99.90
20068;DHT22;10194;50.824;7.134;2023-07-29T15:18:09;20.50;99.90
20068;DHT22;10194;50.824;7.134;2023-07-29T15:20:35;20.60;99.90
20068;DHT22;10194;50.824;7.134;2023-07-29T15:23:01;20.70;99.90
20068;DHT22;10194;50.824;7.134;2023-07-29T15:25:26;20.70;99.90
20068;DHT22;10194;50.824;7.134;2023-07-29T15:27:52;20.80;99.90
20068;DHT22;10194;50.824;7.134;2023-07-29T15:30:18;20.70;99.90
20068;DHT22;10194;50.824;7.134;2023-07-29T15:32:44;20.80;99.90
20068;DHT22;10194;50.824;7.134;2023-07-29T15:35:10;20.90;99.90
20068;DHT22;10194;50.824;7.134;2023-07-29T15:37:36;20.80;99.90
20068;DHT22;10194;50.824;7.134;2023-07-29T15:40:03;20.90;99.90